Time;durP1;ratioP1;P1;durP2;ratioP2;P2;SDS_P1;SDS_P2;PMS_P1;PMS_P2;Temp;Humidity;BMP_temperature;BMP_pressure;BME280_temperature;BME280_humidity;BME280_pressure;Samples;Min_cycle;Max_cycle;Signal;HPM_P1;HPM_P2
2021/06/06 00:00:53;;;;;;;;;0.00;0.00;;;;;17.62;55.73;102014.34;5105571;27;45283;-59
2021/06/06 00:03:20;;;;;;;;;0.00;0.00;;;;;17.60;55.30;102013.66;5106793;27;45372;-60
2021/06/06 00:05:53;;;;;;;;;0.00;0.00;;;;;17.57;55.35;102013.94;5104315;27;45239;-59
2021/06/06 00:08:19;;;;;;;;;0.00;0.00;;;;;17.56;55.18;102009.59;5114677;27;45327;-59
2021/06/06 00:10:45;;;;;;;;;0.00;0.00;;;;;17.55;54.87;102008.75;5122875;27;45179;-59
2021/06/06 00:13:12;;;;;;;;;0.00;0.00;;;;;17.55;54.97;102000.75;5122864;27;45318;-59
2021/06/06 00:15:39;;;;;;;;;0.00;0.00;;;;;17.53;54.59;102009.84;5122581;27;45293;-59
2021/06/06 00:18:04;;;;;;;;;0.00;0.00;;;;;17.51;55.04;102002.00;5122847;27;45292;-59
2021/06/06 00:20:30;;;;;;;;;0.00;0.00;;;;;17.51;55.08;102002.00;5122802;27;45369;-59
2021/06/06 00:22:56;;;;;;;;;0.00;0.00;;;;;17.49;54.61;102003.97;5122972;27;45328;-60
2021/06/06 00:25:23;;;;;;;;;0.00;0.00;;;;;17.47;54.60;101997.94;5122657;27;45529;-59
2021/06/06 00:27:49;;;;;;;;;0.00;0.00;;;;;17.45;54.67;102007.88;5122499;27;45400;-59
2021/06/06 00:30:15;;;;;;;;;0.00;0.00;;;;;17.41;54.74;102009.13;5122915;27;45334;-59
2021/06/06 00:32:40;;;;;;;;;0.00;0.00;;;;;17.40;54.84;102002.09;5122632;27;45301;-60
2021/06/06 00:35:08;;;;;;;;;0.00;0.00;;;;;17.39;55.09;102003.09;5122108;27;45266;-60
2021/06/06 00:37:34;;;;;;;;;0.00;0.00;;;;;17.37;55.17;102005.03;5121945;27;45341;-59
2021/06/06 00:39:59;;;;;;;;;0.00;0.00;;;;;17.35;55.21;101997.19;5122775;27;45367;-60
2021/06/06 00:42:25;;;;;;;;;0.00;0.00;;;;;17.33;55.20;102001.81;5122914;27;45257;-59
2021/06/06 00:44:51;;;;;;;;;0.00;0.00;;;;;17.32;55.08;101997.47;5122579;27;46044;-59
2021/06/06 00:47:16;;;;;;;;;0.00;0.00;;;;;17.33;54.97;101995.66;5122380;27;45292;-59
2021/06/06 00:49:42;;;;;;;;;0.00;0.00;;;;;17.29;55.03;101994.22;5122258;27;45388;-60
2021/06/06 00:52:11;;;;;;;;;0.00;0.00;;;;;17.27;54.64;101990.88;5122606;27;45371;-59
2021/06/06 00:54:42;;;;;;;;;0.00;0.00;;;;;17.24;54.71;101991.16;5122300;27;45310;-60
2021/06/06 00:57:10;;;;;;;;;0.00;0.00;;;;;17.22;54.98;101984.13;5121985;27;45283;-60
2021/06/06 00:59:39;;;;;;;;;0.00;0.00;;;;;17.22;55.15;101978.00;5115139;27;45248;-60
2021/06/06 01:02:07;;;;;;;;;0.00;0.00;;;;;17.21;54.86;101979.81;5101489;27;45448;-60
2021/06/06 01:04:34;;;;;;;;;0.00;0.00;;;;;17.21;54.81;101977.16;5108251;27;46256;-58
2021/06/06 01:07:00;;;;;;;;;0.00;0.00;;;;;17.18;54.89;101971.25;5101621;27;45436;-58
2021/06/06 01:09:26;;;;;;;;;0.00;0.00;;;;;17.18;55.13;101973.91;5110219;27;45148;-58
2021/06/06 01:11:57;;;;;;;;;0.00;0.00;;;;;17.11;55.11;101964.81;5122387;27;45408;-59
2021/06/06 01:14:35;;;;;;;;;0.00;0.00;;;;;17.12;55.23;101971.78;5122346;27;45691;-59
2021/06/06 01:17:08;;;;;;;;;0.00;0.00;;;;;17.09;55.04;101964.94;5121824;27;45225;-59
2021/06/06 01:19:33;;;;;;;;;0.00;0.00;;;;;17.08;55.21;101970.38;5122484;27;45297;-58
2021/06/06 01:22:09;;;;;;;;;0.00;0.00;;;;;17.05;54.98;101965.34;5122339;27;45267;-59
2021/06/06 01:24:39;;;;;;;;;0.00;0.00;;;;;17.08;54.91;101971.19;5122069;27;45242;-60
2021/06/06 01:27:08;;;;;;;;;0.00;0.00;;;;;17.08;55.00;101979.16;5122242;27;45287;-60
2021/06/06 01:30:15;;;;;;;;;0.00;0.00;;;;;17.07;54.87;101979.31;5122384;27;45439;-59
2021/06/06 01:32:49;;;;;;;;;0.00;0.00;;;;;17.04;55.20;101977.78;5104821;27;45139;-60
2021/06/06 01:35:20;;;;;;;;;0.00;0.00;;;;;16.99;54.99;101974.66;5121893;27;46550;-59
2021/06/06 01:37:50;;;;;;;;;0.00;0.00;;;;;16.96;54.84;101969.63;5121944;27;45360;-58
2021/06/06 01:40:23;;;;;;;;;0.00;0.00;;;;;16.93;54.86;101973.38;5122108;27;45159;-60
2021/06/06 01:42:53;;;;;;;;;0.00;0.00;;;;;16.92;55.09;101966.38;5122050;27;45485;-59
2021/06/06 01:45:29;;;;;;;;;0.00;0.00;;;;;16.91;55.12;101963.84;5121900;27;45222;-59
2021/06/06 01:47:59;;;;;;;;;0.00;0.00;;;;;16.89;54.75;101966.66;5121966;27;45356;-60
2021/06/06 01:50:28;;;;;;;;;0.00;0.00;;;;;16.90;55.37;101975.44;5124837;27;45254;-60
2021/06/06 01:52:57;;;;;;;;;0.00;0.00;;;;;16.89;54.98;101965.78;5125403;27;45419;-59
2021/06/06 01:55:27;;;;;;;;;0.00;0.00;;;;;16.87;55.06;101957.09;5125242;27;45342;-59
2021/06/06 01:57:57;;;;;;;;;0.00;0.00;;;;;16.80;54.71;101962.97;5125047;27;45277;-60
2021/06/06 02:00:30;;;;;;;;;0.00;0.00;;;;;16.76;54.74;101965.94;5111207;27;45342;-59
2021/06/06 02:02:56;;;;;;;;;0.00;0.00;;;;;16.73;55.11;101967.06;5106013;27;45421;-59
2021/06/06 02:05:22;;;;;;;;;0.00;0.00;;;;;16.73;54.83;101960.91;5109899;27;46414;-59
2021/06/06 02:07:50;;;;;;;;;0.00;0.00;;;;;16.71;54.97;101953.06;5112592;27;45335;-59
2021/06/06 02:10:28;;;;;;;;;0.00;0.00;;;;;16.69;54.82;101956.84;5125419;27;45253;-59
2021/06/06 02:13:02;;;;;;;;;2.00;2.00;;;;;16.65;54.93;101950.97;5125289;27;45266;-60
2021/06/06 02:15:35;;;;;;;;;0.00;0.00;;;;;16.61;54.82;101947.72;5124743;27;46405;-60
2021/06/06 02:18:02;;;;;;;;;0.00;0.00;;;;;16.58;54.94;101953.25;5125059;27;45276;-58
2021/06/06 02:20:33;;;;;;;;;0.00;0.00;;;;;16.57;54.94;101943.63;5124905;27;45318;-59
2021/06/06 02:22:58;;;;;;;;;0.00;0.00;;;;;16.55;55.20;101942.91;5125264;27;45555;-59
2021/06/06 02:25:25;;;;;;;;;0.00;0.00;;;;;16.51;54.92;101935.34;5124539;27;46272;-59
2021/06/06 02:28:06;;;;;;;;;0.00;0.00;;;;;16.48;55.08;101941.75;5124736;27;45266;-59
2021/06/06 02:30:41;;;;;;;;;0.00;0.00;;;;;16.45;55.19;101939.34;5124989;27;45361;-58
2021/06/06 02:33:12;;;;;;;;;0.00;0.00;;;;;16.42;55.23;101939.63;5124897;27;45415;-59
2021/06/06 02:35:56;;;;;;;;;0.00;0.00;;;;;16.40;55.20;101930.94;5124729;27;45579;-58
2021/06/06 02:38:24;;;;;;;;;0.00;0.00;;;;;16.36;55.18;101935.66;5124506;27;45324;-59
2021/06/06 02:41:00;;;;;;;;;0.00;0.00;;;;;16.34;55.07;101931.47;5124846;27;45584;-59
2021/06/06 02:43:39;;;;;;;;;0.00;0.00;;;;;16.35;55.19;101935.81;5124850;27;45515;-58
2021/06/06 02:46:07;;;;;;;;;0.00;0.00;;;;;16.33;55.41;101930.63;5124258;27;46325;-59
2021/06/06 02:48:38;;;;;;;;;0.00;0.00;;;;;16.32;55.04;101925.44;5124776;27;45215;-59
2021/06/06 02:51:07;;;;;;;;;0.00;0.00;;;;;16.29;55.24;101926.53;5124538;27;45270;-59
2021/06/06 02:53:50;;;;;;;;;0.00;0.00;;;;;16.24;55.24;101926.09;5124545;27;45613;-59
2021/06/06 02:56:20;;;;;;;;;0.00;0.00;;;;;16.22;55.31;101924.50;5124155;27;46390;-59
2021/06/06 02:58:56;;;;;;;;;0.00;0.00;;;;;16.21;55.49;101923.69;5105731;27;45357;-59
2021/06/06 03:01:31;;;;;;;;;0.00;0.00;;;;;16.19;55.80;101920.31;5103313;27;45351;-59
2021/06/06 03:04:00;;;;;;;;;0.00;0.00;;;;;16.17;55.79;101909.81;5110135;27;45346;-60
2021/06/06 03:06:34;;;;;;;;;0.00;0.00;;;;;16.16;56.01;101916.13;5103508;27;45347;-60
2021/06/06 03:09:00;;;;;;;;;0.00;0.00;;;;;16.14;56.05;101911.91;5103275;27;45440;-59
2021/06/06 03:11:27;;;;;;;;;0.00;0.00;;;;;16.10;56.05;101907.81;5103703;27;45223;-60
2021/06/06 03:14:07;;;;;;;;;0.00;0.00;;;;;16.07;55.89;101908.06;5122214;27;45572;-59
2021/06/06 03:16:34;;;;;;;;;0.00;0.00;;;;;16.04;56.40;101906.50;5123832;27;46218;-59
2021/06/06 03:19:02;;;;;;;;;0.00;0.00;;;;;16.03;56.00;101912.78;5105432;27;45228;-59
2021/06/06 03:21:36;;;;;;;;;0.00;0.00;;;;;16.01;56.11;101901.47;5124001;27;45321;-60
2021/06/06 03:24:07;;;;;;;;;0.00;0.00;;;;;15.99;56.29;101900.75;5124264;27;45488;-58
2021/06/06 03:26:35;;;;;;;;;0.00;0.00;;;;;16.00;56.10;101913.03;5123607;27;47538;-58
2021/06/06 03:29:04;;;;;;;;;0.00;0.00;;;;;15.97;55.88;101903.53;5123903;27;45312;-58
2021/06/06 03:32:06;;;;;;;;;0.00;0.00;;;;;15.97;56.37;101908.00;5123587;27;45302;-59
2021/06/06 03:34:31;;;;;;;;;0.00;0.00;;;;;15.97;56.32;101913.28;5119559;27;45449;-59
2021/06/06 03:36:57;;;;;;;;;0.00;0.00;;;;;15.95;56.73;101902.81;5123860;27;46283;-59
2021/06/06 03:39:28;;;;;;;;;0.00;0.00;;;;;15.94;56.67;101909.09;5123609;27;45237;-59
2021/06/06 03:41:59;;;;;;;;;0.00;0.00;;;;;15.93;56.90;101912.69;5124024;27;45321;-59
2021/06/06 03:44:25;;;;;;;;;0.00;0.00;;;;;15.92;56.65;101910.19;5123839;27;45263;-59
2021/06/06 03:46:51;;;;;;;;;0.00;0.00;;;;;15.90;57.07;101904.19;5123348;27;45367;-59
2021/06/06 03:49:18;;;;;;;;;0.00;0.00;;;;;15.88;57.08;101903.47;5104445;27;46231;-59
2021/06/06 03:51:45;;;;;;;;;0.00;0.00;;;;;15.86;57.20;101908.88;5123784;27;45255;-59
2021/06/06 03:54:11;;;;;;;;;0.00;0.00;;;;;15.84;57.11;101908.16;5123648;27;45552;-59
2021/06/06 03:56:39;;;;;;;;;0.00;0.00;;;;;15.79;57.17;101905.03;5104456;27;47914;-59
2021/06/06 03:59:06;;;;;;;;;0.00;0.00;;;;;15.76;57.16;101899.97;5106809;27;45281;-59
2021/06/06 04:01:31;;;;;;;;;0.00;0.00;;;;;15.72;57.30;101896.75;5102651;27;45288;-59
2021/06/06 04:03:57;;;;;;;;;0.00;0.00;;;;;15.66;57.34;101891.94;5109985;27;45242;-60
2021/06/06 04:06:23;;;;;;;;;0.00;0.00;;;;;15.65;57.42;101898.16;5102616;27;47343;-60
2021/06/06 04:08:50;;;;;;;;;0.00;0.00;;;;;15.65;57.69;101895.53;5119087;27;45274;-59
2021/06/06 04:11:16;;;;;;;;;0.00;0.00;;;;;15.66;57.80;101891.94;5123103;27;45222;-59
2021/06/06 04:13:41;;;;;;;;;0.00;0.00;;;;;15.69;57.86;101896.97;5122906;27;45237;-59
2021/06/06 04:16:07;;;;;;;;;0.00;0.00;;;;;15.68;57.71;101895.28;5122927;27;46897;-59
2021/06/06 04:18:33;;;;;;;;;0.00;0.00;;;;;15.69;57.59;101890.81;5123190;27;45308;-58
2021/06/06 04:21:02;;;;;;;;;0.00;0.00;;;;;15.68;57.81;101902.38;5123390;27;45335;-58
2021/06/06 04:23:28;;;;;;;;;0.00;0.00;;;;;15.64;57.84;101893.84;5123421;27;45307;-59
2021/06/06 04:25:53;;;;;;;;;0.00;0.00;;;;;15.64;57.77;101895.66;5123203;27;45314;-59
2021/06/06 04:28:22;;;;;;;;;0.00;0.00;;;;;15.64;57.94;101895.66;5122910;27;45320;-59
2021/06/06 04:30:49;;;;;;;;;0.00;0.00;;;;;15.64;58.02;101903.63;5122906;27;45218;-58
2021/06/06 04:33:14;;;;;;;;;0.00;0.00;;;;;15.64;57.91;101903.63;5123062;27;45491;-59
2021/06/06 04:35:42;;;;;;;;;0.00;0.00;;;;;15.63;58.08;101902.75;5122956;27;46690;-58
2021/06/06 04:38:12;;;;;;;;;0.00;0.00;;;;;15.64;58.07;101906.25;5122871;27;45277;-59
2021/06/06 04:40:39;;;;;;;;;0.00;0.00;;;;;15.62;57.92;101909.03;5122972;27;45268;-58
2021/06/06 04:43:05;;;;;;;;;0.00;0.00;;;;;15.64;58.00;101903.63;5104266;27;45529;-59
2021/06/06 04:45:31;;;;;;;;;0.00;0.00;;;;;15.66;58.02;101906.94;5122462;27;45637;-58
2021/06/06 04:48:27;;;;;;;;;0.00;0.00;;;;;15.66;57.92;101902.53;5104033;27;45457;-59
2021/06/06 04:50:54;;;;;;;;;0.00;0.00;;;;;15.67;57.74;101909.47;5122125;27;46571;-59
2021/06/06 04:53:20;;;;;;;;;0.00;0.00;;;;;15.66;57.77;101915.75;5122983;27;45405;-60
2021/06/06 04:55:46;;;;;;;;;0.00;0.00;;;;;15.67;57.70;101913.94;5122542;27;46566;-58
2021/06/06 04:58:18;;;;;;;;;0.00;0.00;;;;;15.67;57.68;101917.44;5122371;27;45254;-59
2021/06/06 05:00:44;;;;;;;;;0.00;0.00;;;;;15.65;57.58;101915.88;5105863;27;45405;-59
2021/06/06 05:03:11;;;;;;;;;0.00;0.00;;;;;15.67;57.69;101916.59;5111719;27;45348;-59
2021/06/06 05:05:37;;;;;;;;;0.00;0.00;;;;;15.66;57.44;101910.47;5105445;27;47342;-59
2021/06/06 05:08:04;;;;;;;;;0.00;0.00;;;;;15.72;57.62;101907.34;5111895;27;45258;-59
2021/06/06 05:10:35;;;;;;;;;0.00;0.00;;;;;15.75;57.38;101906.25;5122519;27;45241;-58
2021/06/06 05:13:02;;;;;;;;;0.00;0.00;;;;;15.74;57.31;101902.78;5122588;27;45226;-59
2021/06/06 05:15:27;;;;;;;;;0.00;0.00;;;;;15.78;57.20;101908.66;5122093;27;46370;-59
2021/06/06 05:17:53;;;;;;;;;0.00;0.00;;;;;15.80;57.23;101906.72;5122289;27;45323;-59
2021/06/06 05:20:22;;;;;;;;;0.00;0.00;;;;;15.83;57.14;101902.97;5122261;27;45303;-59
2021/06/06 05:22:47;;;;;;;;;0.00;0.00;;;;;15.83;57.02;101901.19;5122846;27;45585;-58
2021/06/06 05:25:14;;;;;;;;;0.00;0.00;;;;;15.88;57.06;101903.47;5125969;27;45421;-58
2021/06/06 05:27:39;;;;;;;;;0.00;0.00;;;;;15.91;57.04;101897.91;5125786;27;45328;-58
2021/06/06 05:30:07;;;;;;;;;0.00;0.00;;;;;15.95;56.75;101899.31;5125921;27;45458;-59
2021/06/06 05:32:33;;;;;;;;;0.00;0.00;;;;;15.95;56.64;101904.63;5126026;27;45314;-59
2021/06/06 05:34:58;;;;;;;;;0.00;0.00;;;;;15.94;56.65;101893.19;5125602;27;46084;-59
2021/06/06 05:37:24;;;;;;;;;0.00;0.00;;;;;15.99;56.77;101903.41;5125977;27;45269;-58
2021/06/06 05:39:49;;;;;;;;;0.00;0.00;;;;;16.02;56.68;101904.97;5125831;27;45541;-58
2021/06/06 05:42:15;;;;;;;;;0.00;0.00;;;;;16.08;56.54;101904.47;5125584;27;45465;-59
2021/06/06 05:44:40;;;;;;;;;0.00;0.00;;;;;16.13;56.38;101904.91;5125447;27;46063;-58
2021/06/06 05:47:06;;;;;;;;;0.00;0.00;;;;;16.19;56.24;101910.53;5125166;27;45346;-58
2021/06/06 05:49:32;;;;;;;;;0.00;0.00;;;;;16.23;56.18;101905.84;5125418;27;45494;-59
2021/06/06 05:51:57;;;;;;;;;0.00;0.00;;;;;16.28;56.19;101903.63;5125884;27;45342;-58
2021/06/06 05:54:22;;;;;;;;;0.00;0.00;;;;;16.33;56.00;101903.28;5124957;27;50185;-58
2021/06/06 05:56:48;;;;;;;;;0.00;0.00;;;;;16.43;55.84;101909.47;5125355;27;45278;-58
2021/06/06 05:59:14;;;;;;;;;0.00;0.00;;;;;16.51;55.55;101906.19;5121015;27;45366;-58
2021/06/06 06:01:40;;;;;;;;;0.00;0.00;;;;;16.56;55.17;101909.28;5115728;27;45259;-58
2021/06/06 06:04:05;;;;;;;;;0.00;0.00;;;;;16.58;54.70;101912.63;5120676;27;45675;-60
2021/06/06 06:06:31;;;;;;;;;0.00;0.00;;;;;16.66;54.42;101919.97;5115954;27;45234;-60
2021/06/06 06:08:56;;;;;;;;;0.00;0.00;;;;;16.97;53.89;101913.72;5125276;27;45284;-58
2021/06/06 06:11:23;;;;;;;;;0.00;0.00;;;;;17.47;53.40;101918.25;5125403;27;45648;-59
2021/06/06 06:13:50;;;;;;;;;0.00;0.00;;;;;18.03;52.92;101914.19;5125132;27;45361;-58
2021/06/06 06:16:19;;;;;;;;;0.00;0.00;;;;;18.59;51.41;101915.25;5124997;27;45405;-58
2021/06/06 06:18:44;;;;;;;;;0.00;0.00;;;;;19.14;50.37;101919.91;5125213;27;45364;-58
2021/06/06 06:21:13;;;;;;;;;0.00;0.00;;;;;19.66;49.63;101915.69;5125376;27;45617;-58
2021/06/06 06:23:39;;;;;;;;;0.00;0.00;;;;;20.12;48.08;101910.34;5124985;27;46518;-58
2021/06/06 06:26:05;;;;;;;;;0.00;0.00;;;;;20.59;47.48;101909.25;5124940;27;45290;-58
2021/06/06 06:28:31;;;;;;;;;0.00;0.00;;;;;21.01;46.84;101917.31;5125024;27;45286;-59
2021/06/06 06:30:57;;;;;;;;;0.00;0.00;;;;;21.34;45.33;101917.50;5124800;27;45610;-59
2021/06/06 06:33:23;;;;;;;;;0.00;0.00;;;;;21.63;44.99;101911.75;5124929;27;45543;-60
2021/06/06 06:35:49;;;;;;;;;0.00;0.00;;;;;21.88;43.95;101922.50;5124217;27;45490;-60
2021/06/06 06:38:15;;;;;;;;;0.00;0.00;;;;;22.12;43.55;101922.53;5124427;27;45312;-60
2021/06/06 06:40:41;;;;;;;;;0.00;0.00;;;;;22.36;42.75;101926.25;5124867;27;45449;-59
2021/06/06 06:43:06;;;;;;;;;0.00;0.00;;;;;22.57;43.20;101930.22;5124507;27;46409;-59
2021/06/06 06:45:35;;;;;;;;;0.00;0.00;;;;;22.68;41.90;101927.22;5124752;27;45357;-59
2021/06/06 06:48:11;;;;;;;;;0.00;0.00;;;;;22.76;41.79;101929.03;5124676;27;45286;-59
2021/06/06 06:50:37;;;;;;;;;0.00;0.00;;;;;22.91;41.51;101930.00;5124573;27;45444;-59
2021/06/06 06:53:03;;;;;;;;;0.00;0.00;;;;;23.06;40.73;101924.78;5124029;27;45531;-60
2021/06/06 06:55:30;;;;;;;;;0.00;0.00;;;;;23.24;40.94;101930.78;5124567;27;45341;-59
2021/06/06 06:57:57;;;;;;;;;0.00;0.00;;;;;23.46;40.49;101928.34;5124223;27;45471;-60
2021/06/06 07:00:26;;;;;;;;;0.00;0.00;;;;;23.56;39.55;101926.25;5110385;27;45610;-60
2021/06/06 07:02:52;;;;;;;;;0.00;0.00;;;;;23.64;38.83;101933.44;5103959;27;46906;-60
2021/06/06 07:05:18;;;;;;;;;0.00;0.00;;;;;23.72;39.27;101930.69;5110004;27;45321;-60
2021/06/06 07:07:43;;;;;;;;;0.00;0.00;;;;;23.90;39.05;101930.44;5110719;27;45426;-60
2021/06/06 07:10:12;;;;;;;;;0.00;0.00;;;;;23.80;38.57;101930.69;5124133;27;45543;-60
2021/06/06 07:12:38;;;;;;;;;0.00;0.00;;;;;23.67;38.75;101936.59;5123547;27;46443;-60
2021/06/06 07:15:10;;;;;;;;;0.00;0.00;;;;;23.61;39.29;101934.63;5123770;27;45331;-59
2021/06/06 07:17:35;;;;;;;;;0.00;0.00;;;;;23.63;38.75;101937.09;5124139;27;45230;-60
2021/06/06 07:20:02;;;;;;;;;0.00;0.00;;;;;23.68;38.63;101937.44;5124113;27;45309;-59
2021/06/06 07:22:27;;;;;;;;;0.00;0.00;;;;;23.77;38.65;101930.19;5123592;27;46527;-59
2021/06/06 07:24:52;;;;;;;;;0.00;0.00;;;;;24.00;38.27;101935.59;5123562;27;45221;-58
2021/06/06 07:27:19;;;;;;;;;0.00;0.00;;;;;24.36;38.05;101935.78;5123585;27;45496;-59
2021/06/06 07:29:45;;;;;;;;;0.00;0.00;;;;;24.73;36.52;101937.66;5123897;27;45475;-58
2021/06/06 07:32:11;;;;;;;;;0.00;0.00;;;;;25.10;36.94;101930.53;5123458;27;46188;-59
2021/06/06 07:34:37;;;;;;;;;0.00;0.00;;;;;25.57;36.59;101931.09;5123720;27;45255;-59
2021/06/06 07:37:06;;;;;;;;;0.00;0.00;;;;;25.98;35.74;101935.91;5124158;27;45294;-59
2021/06/06 07:39:32;;;;;;;;;0.00;0.00;;;;;26.25;34.77;101930.78;5123705;27;45580;-59
2021/06/06 07:41:58;;;;;;;;;0.00;0.00;;;;;26.43;34.91;101931.13;5123638;27;45267;-59
2021/06/06 07:44:24;;;;;;;;;0.00;0.00;;;;;26.77;34.11;101922.28;5122973;27;45250;-59
2021/06/06 07:46:49;;;;;;;;;0.00;0.00;;;;;27.02;33.43;101927.22;5123256;27;45239;-59
2021/06/06 07:49:15;;;;;;;;;0.00;0.00;;;;;27.33;33.59;101923.22;5123722;27;45223;-59
2021/06/06 07:51:41;;;;;;;;;0.00;0.00;;;;;27.69;32.99;101928.31;5123594;27;46427;-59
2021/06/06 07:54:07;;;;;;;;;0.00;0.00;;;;;27.91;32.05;101925.50;5123227;27;45362;-59
2021/06/06 07:56:33;;;;;;;;;0.00;0.00;;;;;28.04;28.57;101927.38;5123266;27;45468;-59
2021/06/06 07:58:59;;;;;;;;;0.00;0.00;;;;;28.06;30.90;101934.22;5121260;27;45393;-59
2021/06/06 08:01:24;;;;;;;;;0.00;0.00;;;;;28.26;30.87;101930.69;5110803;27;45449;-59
2021/06/06 08:03:51;;;;;;;;;0.00;0.00;;;;;28.60;30.21;101921.56;5121164;27;45473;-60
2021/06/06 08:06:18;;;;;;;;;0.00;0.00;;;;;28.93;30.42;101929.59;5111495;27;45441;-59
2021/06/06 08:08:44;;;;;;;;;0.00;0.00;;;;;29.27;29.29;101924.09;5122833;27;45225;-60
2021/06/06 08:11:10;;;;;;;;;0.00;0.00;;;;;29.58;29.60;101923.28;5122901;27;46269;-60
2021/06/06 08:13:36;;;;;;;;;0.00;0.00;;;;;29.85;28.42;101930.25;5122748;27;45312;-59
2021/06/06 08:16:03;;;;;;;;;0.00;0.00;;;;;30.20;27.63;101923.53;5122557;27;45328;-59
2021/06/06 08:18:31;;;;;;;;;0.00;0.00;;;;;30.46;28.00;101920.59;5122949;27;45327;-60
2021/06/06 08:21:11;;;;;;;;;0.00;0.00;;;;;30.59;27.10;101925.06;5122824;27;46395;-59
2021/06/06 08:23:37;;;;;;;;;0.00;0.00;;;;;30.82;26.93;101920.84;5122223;27;45339;-59
2021/06/06 08:26:04;;;;;;;;;0.00;0.00;;;;;31.23;27.11;101922.91;5122668;27;45389;-59
2021/06/06 08:28:31;;;;;;;;;0.00;0.00;;;;;31.57;25.63;101927.91;5122464;27;45298;-59
2021/06/06 08:31:03;;;;;;;;;0.00;0.00;;;;;32.01;26.11;101933.94;5122440;27;46829;-58
2021/06/06 08:33:30;;;;;;;;;0.00;0.00;;;;;32.30;23.23;101921.34;5122839;27;45304;-59
2021/06/06 08:36:01;;;;;;;;;0.00;0.00;;;;;32.66;24.25;101912.13;5122842;27;45265;-59
2021/06/06 08:38:28;;;;;;;;;0.00;0.00;;;;;33.37;24.71;101919.28;5122534;27;45326;-59
2021/06/06 08:41:12;;;;;;;;;0.00;0.00;;;;;34.46;24.49;101918.16;5122032;27;46976;-60
2021/06/06 08:43:48;;;;;;;;;0.00;0.00;;;;;35.93;23.08;101920.13;5122286;27;45355;-58
2021/06/06 08:46:15;;;;;;;;;0.00;0.00;;;;;37.13;22.22;101918.66;5122213;27;45396;-60
2021/06/06 08:48:41;;;;;;;;;0.00;0.00;;;;;38.37;20.08;101910.19;5122563;27;45260;-59
2021/06/06 08:51:06;;;;;;;;;0.00;0.00;;;;;40.02;18.43;101920.28;5122019;27;46238;-60
2021/06/06 08:53:40;;;;;;;;;0.00;0.00;;;;;41.46;18.40;101917.41;5121596;27;45374;-59
2021/06/06 08:56:19;;;;;;;;;0.00;0.00;;;;;43.03;17.11;101922.22;5121746;27;45257;-59
2021/06/06 08:59:19;;;;;;;;;0.00;0.00;;;;;44.49;14.39;101924.59;5121224;27;45480;-59
2021/06/06 09:01:53;;;;;;;;;0.00;0.00;;;;;45.81;13.53;101918.75;5109497;27;45382;-59
2021/06/06 09:04:21;;;;;;;;;0.00;0.00;;;;;46.75;14.25;101913.09;5107557;27;45290;-60
2021/06/06 09:06:51;;;;;;;;;0.00;0.00;;;;;48.08;13.56;101915.09;5114611;27;45231;-60
2021/06/06 09:09:20;;;;;;;;;0.00;0.00;;;;;49.10;12.07;101917.03;5122249;27;45370;-60
2021/06/06 09:11:45;;;;;;;;;0.00;0.00;;;;;49.72;10.93;101914.78;5121416;27;45348;-60
2021/06/06 09:14:11;;;;;;;;;0.00;0.00;;;;;50.35;10.75;101902.72;5121835;27;45356;-60
2021/06/06 09:17:16;;;;;;;;;0.00;0.00;;;;;50.85;9.90;101907.47;5121290;27;45226;-59
2021/06/06 09:19:55;;;;;;;;;0.00;0.00;;;;;50.99;10.07;101903.34;5018437;28;45320;-61
2021/06/06 09:22:40;;;;;;;;;0.00;0.00;;;;;51.38;9.68;101909.69;5018114;28;47234;-60
2021/06/06 09:25:10;;;;;;;;;0.00;0.00;;;;;51.64;9.09;101903.38;5089807;27;45354;-60
2021/06/06 09:27:36;;;;;;;;;0.00;0.00;;;;;51.66;8.90;101897.41;5121617;27;45328;-61
2021/06/06 09:30:05;;;;;;;;;0.00;0.00;;;;;51.26;9.17;101890.31;5121360;27;45522;-59
2021/06/06 09:32:31;;;;;;;;;0.00;0.00;;;;;49.06;9.66;101903.00;5102484;27;47357;-60
2021/06/06 09:35:07;;;;;;;;;0.00;0.00;;;;;46.33;10.99;101903.84;5121112;27;45484;-60
2021/06/06 09:37:35;;;;;;;;;0.00;0.00;;;;;43.07;11.91;101895.59;5102857;27;45250;-60
2021/06/06 09:40:11;;;;;;;;;0.00;0.00;;;;;41.57;13.20;101899.59;5121526;27;45466;-60
2021/06/06 09:42:47;;;;;;;;;0.00;0.00;;;;;41.29;14.26;101903.34;5120903;27;45496;-61
2021/06/06 09:45:27;;;;;;;;;0.00;0.00;;;;;41.70;14.66;101898.00;5120615;27;45455;-60
2021/06/06 09:47:58;;;;;;;;;0.00;0.00;;;;;41.13;14.24;101900.00;5120978;27;45401;-59
2021/06/06 09:50:24;;;;;;;;;0.00;0.00;;;;;40.05;14.48;101904.03;5120976;27;45350;-60
2021/06/06 09:52:51;;;;;;;;;0.00;0.00;;;;;38.56;14.70;101893.97;5120524;27;46452;-60
2021/06/06 09:55:22;;;;;;;;;0.00;0.00;;;;;36.90;16.44;101903.50;5120879;27;45416;-59
2021/06/06 09:57:50;;;;;;;;;0.00;0.00;;;;;36.07;17.19;101904.94;5120698;27;45287;-59
2021/06/06 10:00:18;;;;;;;;;0.00;0.00;;;;;35.97;18.28;101904.84;5107282;27;45636;-59
2021/06/06 10:02:58;;;;;;;;;0.00;0.00;;;;;35.86;17.76;101903.13;5099325;27;45585;-60
2021/06/06 10:05:31;;;;;;;;;0.00;0.00;;;;;35.56;18.24;101903.66;5100067;27;45231;-59
2021/06/06 10:08:07;;;;;;;;;0.00;0.00;;;;;35.73;18.17;101902.47;5109409;27;45296;-60
2021/06/06 10:10:46;;;;;;;;;0.00;0.00;;;;;36.72;19.18;101899.34;5122112;27;45662;-59
2021/06/06 10:13:17;;;;;;;;;0.00;0.00;;;;;37.60;17.91;101903.13;5123612;27;45389;-60
2021/06/06 10:15:52;;;;;;;;;0.00;0.00;;;;;38.27;17.97;101901.19;5123781;27;45327;-60
2021/06/06 10:18:56;;;;;;;;;0.00;0.00;;;;;40.25;16.12;101897.47;5123555;27;45345;-59
2021/06/06 10:21:26;;;;;;;;;0.00;0.00;;;;;41.76;15.17;101895.97;5089671;27;45374;-60
2021/06/06 10:23:55;;;;;;;;;0.00;0.00;;;;;43.77;13.85;101902.44;5123656;27;45406;-61
2021/06/06 10:26:55;;;;;;;;;0.00;0.00;;;;;45.97;12.81;101903.19;5123486;27;45186;-59
2021/06/06 10:29:30;;;;;;;;;0.00;0.00;;;;;46.89;12.13;101907.28;5105076;27;45353;-60
2021/06/06 10:32:03;;;;;;;;;0.00;0.00;;;;;47.74;11.55;101907.97;5123277;27;45285;-60
2021/06/06 10:35:17;;;;;;;;;0.00;0.00;;;;;48.37;10.65;101902.91;5123425;27;46491;-59
2021/06/06 10:37:47;;;;;;;;;0.00;0.00;;;;;48.78;11.08;101909.34;5114863;27;45270;-59
2021/06/06 10:40:41;;;;;;;;;0.00;0.00;;;;;48.48;10.46;101900.47;5123714;27;45344;-60
2021/06/06 10:43:19;;;;;;;;;0.00;0.00;;;;;47.73;11.38;101904.38;5111827;27;45247;-60
2021/06/06 10:46:16;;;;;;;;;0.00;0.00;;;;;45.44;10.92;101896.97;5123339;27;45324;-61
2021/06/06 10:48:50;;;;;;;;;0.00;0.00;;;;;42.75;12.63;101889.09;5123428;27;45329;-61
2021/06/06 10:51:36;;;;;;;;;0.00;0.00;;;;;40.66;14.47;101893.44;5123533;27;45252;-61
2021/06/06 10:54:21;;;;;;;;;0.00;0.00;;;;;39.14;15.16;101893.44;5123657;27;45221;-61
2021/06/06 10:56:46;;;;;;;;;0.00;0.00;;;;;38.24;16.43;101896.25;5123415;27;45348;-61
2021/06/06 10:59:13;;;;;;;;;0.00;0.00;;;;;37.36;16.79;101882.53;5119685;27;45243;-61
2021/06/06 11:01:47;;;;;;;;;0.00;0.00;;;;;36.58;17.67;101881.72;5102617;27;45276;-61
2021/06/06 11:04:22;;;;;;;;;0.00;0.00;;;;;36.04;18.23;101885.47;5108905;27;45484;-59
2021/06/06 11:07:00;;;;;;;;;0.00;0.00;;;;;35.74;17.94;101874.03;5115264;27;46653;-60
2021/06/06 11:09:30;;;;;;;;;0.00;0.00;;;;;35.50;18.95;101887.19;5122651;27;45329;-60
2021/06/06 11:12:03;;;;;;;;;0.00;0.00;;;;;35.12;18.95;101869.88;5104207;27;45375;-60
2021/06/06 11:14:49;;;;;;;;;0.00;0.00;;;;;34.97;19.23;101875.19;5122962;27;45229;-60
2021/06/06 11:17:35;;;;;;;;;0.00;0.00;;;;;34.76;18.94;101871.38;5122775;27;45316;-61
2021/06/06 11:20:23;;;;;;;;;0.00;0.00;;;;;34.79;19.56;101867.31;5123314;27;45328;-60
2021/06/06 11:22:49;;;;;;;;;0.00;0.00;;;;;34.81;20.02;101857.78;5122710;27;45255;-61
2021/06/06 11:25:43;;;;;;;;;0.00;0.00;;;;;34.70;20.12;101853.28;5122683;27;45196;-61
2021/06/06 11:28:24;;;;;;;;;0.00;0.00;;;;;34.22;20.28;101857.53;5122497;27;45503;-61
2021/06/06 11:30:52;;;;;;;;;0.00;0.00;;;;;33.80;20.99;101861.53;5122284;27;45266;-61
2021/06/06 11:33:46;;;;;;;;;0.00;0.00;;;;;33.39;21.10;101866.25;5122271;27;45182;-61
2021/06/06 11:36:12;;;;;;;;;0.00;0.00;;;;;32.91;21.88;101862.03;5122919;27;45224;-61
2021/06/06 11:38:43;;;;;;;;;0.00;0.00;;;;;32.52;21.71;101861.72;5122744;27;46858;-61